createdAt,value
2023-02-14T00:00:09.244Z,102495.84
2023-02-14T00:02:35.604Z,102499.75
2023-02-14T00:05:01.996Z,102497.91
2023-02-14T00:07:28.309Z,102491.84
2023-02-14T00:09:54.645Z,102493.66
2023-02-14T00:12:20.981Z,102497.59
2023-02-14T00:15:06.270Z,102496.34
2023-02-14T00:17:32.573Z,102492.75
2023-02-14T00:19:58.880Z,102479.94
2023-02-14T00:22:25.242Z,102497.41
2023-02-14T00:24:51.614Z,102495.47
2023-02-14T00:27:18.012Z,102489.78
2023-02-14T00:29:44.317Z,102490.69
2023-02-14T00:32:10.676Z,102492.97
2023-02-14T00:34:37.006Z,102479.53
2023-02-14T00:37:03.364Z,102483.34
2023-02-14T00:39:29.800Z,102491.44
2023-02-14T00:41:56.113Z,102488.78
2023-02-14T00:44:22.435Z,102490.38
2023-02-14T00:46:48.768Z,102490.38
2023-02-14T00:49:15.104Z,102480.28
2023-02-14T00:51:41.501Z,102481.22
2023-02-14T00:54:07.832Z,102477.34
2023-02-14T00:56:34.209Z,102477.47
2023-02-14T00:59:00.522Z,102476.00
2023-02-14T01:01:26.968Z,102476.44
2023-02-14T01:03:53.306Z,102471.63
2023-02-14T01:06:19.624Z,102476.25
2023-02-14T01:08:46.040Z,102472.22
2023-02-14T01:11:12.400Z,102473.53
2023-02-14T01:13:38.731Z,102478.06
2023-02-14T01:16:05.058Z,102482.00
2023-02-14T01:18:31.372Z,102473.47
2023-02-14T01:20:58.001Z,102465.53
2023-02-14T01:23:24.558Z,102463.87
2023-02-14T01:25:50.874Z,102463.66
2023-02-14T01:28:17.197Z,102470.25
2023-02-14T01:30:43.522Z,102462.81
2023-02-14T01:33:09.937Z,102469.22
2023-02-14T01:35:36.251Z,102470.13
2023-02-14T01:38:02.545Z,102459.59
2023-02-14T01:40:28.906Z,102459.50
2023-02-14T01:42:57.408Z,102447.75
2023-02-14T01:45:24.856Z,102452.50
2023-02-14T01:47:51.234Z,102457.28
2023-02-14T01:50:17.733Z,102451.75
2023-02-14T01:52:44.057Z,102452.84
2023-02-14T01:55:10.390Z,102445.12
2023-02-14T01:57:36.723Z,102453.19
2023-02-14T02:00:21.893Z,102455.44
2023-02-14T02:02:48.254Z,102461.88
2023-02-14T02:05:14.635Z,102454.44
2023-02-14T02:07:40.972Z,102451.75
2023-02-14T02:10:07.277Z,102452.50
2023-02-14T02:12:35.548Z,102453.87
2023-02-14T02:15:01.877Z,102448.66
2023-02-14T02:17:28.177Z,102442.84
2023-02-14T02:19:54.992Z,102441.75
2023-02-14T02:22:21.369Z,102447.50
2023-02-14T02:24:48.322Z,102447.69
2023-02-14T02:27:14.628Z,102451.63
2023-02-14T02:29:41.211Z,102444.91
2023-02-14T02:32:07.596Z,102447.84
2023-02-14T02:34:34.066Z,102437.69
2023-02-14T02:37:00.434Z,102431.66
2023-02-14T02:39:26.754Z,102439.38
2023-02-14T02:41:53.056Z,102440.88
2023-02-14T02:44:19.406Z,102436.94
2023-02-14T02:46:48.795Z,102431.78
2023-02-14T02:49:15.121Z,102436.16
2023-02-14T02:52:00.235Z,102434.22
2023-02-14T02:54:26.562Z,102435.31
2023-02-14T02:56:53.576Z,102425.41
2023-02-14T02:59:20.754Z,102426.28
2023-02-14T03:01:47.184Z,102426.81
2023-02-14T03:04:32.555Z,102427.84
2023-02-14T03:06:58.907Z,102420.34
2023-02-14T03:09:25.231Z,102419.91
2023-02-14T03:11:51.556Z,102420.75
2023-02-14T03:14:17.875Z,102421.62
2023-02-14T03:16:44.191Z,102431.38
2023-02-14T03:19:29.350Z,102433.66
2023-02-14T03:21:55.694Z,102428.09
2023-02-14T03:24:22.054Z,102436.38
2023-02-14T03:26:48.384Z,102431.06
2023-02-14T03:29:14.702Z,102431.31
2023-02-14T03:31:41.112Z,102433.25
2023-02-14T03:34:07.520Z,102435.59
2023-02-14T03:36:33.900Z,102435.81
2023-02-14T03:39:00.216Z,102424.94
2023-02-14T03:41:27.429Z,102431.22
2023-02-14T03:43:53.763Z,102421.56
2023-02-14T03:46:20.100Z,102419.97
2023-02-14T03:48:46.454Z,102426.06
2023-02-14T03:51:12.790Z,102411.34
2023-02-14T03:53:39.106Z,102418.56
2023-02-14T03:56:05.418Z,102423.41
2023-02-14T03:58:32.832Z,102423.72
2023-02-14T04:00:59.541Z,102420.25
2023-02-14T04:03:26.184Z,102423.00
2023-02-14T04:05:52.727Z,102424.78
2023-02-14T04:08:19.042Z,102427.31
2023-02-14T04:10:45.379Z,102424.28
2023-02-14T04:13:11.701Z,102431.78
2023-02-14T04:15:38.109Z,102430.84
2023-02-14T04:18:23.370Z,102431.94
2023-02-14T04:20:49.758Z,102433.19
2023-02-14T04:23:16.098Z,102428.03
2023-02-14T04:25:43.158Z,102425.06
2023-02-14T04:28:09.480Z,102417.34
2023-02-14T04:30:35.900Z,102425.12
2023-02-14T04:33:02.240Z,102415.09
2023-02-14T04:35:28.607Z,102412.59
2023-02-14T04:37:54.915Z,102413.47
2023-02-14T04:40:21.244Z,102414.81
2023-02-14T04:42:47.541Z,102404.06
2023-02-14T04:45:13.921Z,102418.25
2023-02-14T04:47:40.239Z,102409.37
2023-02-14T04:50:06.588Z,102415.16
2023-02-14T04:52:32.946Z,102405.16
2023-02-14T04:54:59.285Z,102408.25
2023-02-14T04:57:25.586Z,102400.97
2023-02-14T04:59:51.906Z,102398.47
2023-02-14T05:02:18.338Z,102403.94
2023-02-14T05:04:44.809Z,102401.53
2023-02-14T05:07:11.143Z,102393.63
2023-02-14T05:09:37.475Z,102402.66
2023-02-14T05:12:03.795Z,102396.06
2023-02-14T05:14:30.107Z,102397.44
2023-02-14T05:16:56.429Z,102404.72
2023-02-14T05:19:22.815Z,102404.72
2023-02-14T05:21:49.161Z,102396.34
2023-02-14T05:24:15.472Z,102400.59
2023-02-14T05:26:41.807Z,102395.50
2023-02-14T05:29:08.172Z,102396.41
2023-02-14T05:31:34.616Z,102392.84
2023-02-14T05:34:01.079Z,102393.50
2023-02-14T05:36:27.385Z,102394.53
2023-02-14T05:38:53.704Z,102394.03
2023-02-14T05:41:20.014Z,102397.34
2023-02-14T05:43:46.357Z,102398.66
2023-02-14T05:46:12.788Z,102392.91
2023-02-14T05:48:39.224Z,102394.03
2023-02-14T05:51:05.605Z,102392.66
2023-02-14T05:53:32.249Z,102386.59
2023-02-14T05:55:58.566Z,102394.59
2023-02-14T05:58:24.977Z,102386.47
2023-02-14T06:00:51.295Z,102392.34
2023-02-14T06:03:17.617Z,102397.00
2023-02-14T06:05:43.934Z,102391.12
2023-02-14T06:08:10.247Z,102386.41
2023-02-14T06:10:36.586Z,102381.84
2023-02-14T06:13:03.085Z,102394.03
2023-02-14T06:15:29.402Z,102391.00
2023-02-14T06:17:55.738Z,102398.66
2023-02-14T06:20:22.119Z,102393.25
2023-02-14T06:22:48.512Z,102379.22
2023-02-14T06:25:14.904Z,102391.53
2023-02-14T06:27:41.202Z,102390.75
2023-02-14T06:30:07.614Z,102391.81
2023-02-14T06:32:33.965Z,102392.03
2023-02-14T06:35:00.301Z,102396.06
2023-02-14T06:37:26.654Z,102403.37
2023-02-14T06:39:53.006Z,102401.53
2023-02-14T06:42:19.418Z,102405.69
2023-02-14T06:44:45.752Z,102402.38
2023-02-14T06:47:12.072Z,102406.72
2023-02-14T06:49:39.479Z,102415.34
2023-02-14T06:52:05.860Z,102411.88
2023-02-14T06:54:32.155Z,102413.88
2023-02-14T06:56:58.481Z,102406.84
2023-02-14T06:59:24.791Z,102417.69
2023-02-14T07:01:51.159Z,102413.03
2023-02-14T07:04:17.910Z,102406.66
2023-02-14T07:06:44.224Z,102410.06
2023-02-14T07:09:10.565Z,102416.75
2023-02-14T07:11:36.892Z,102410.31
2023-02-14T07:14:03.268Z,102403.94
2023-02-14T07:16:29.665Z,102400.47
2023-02-14T07:18:55.994Z,102398.06
2023-02-14T07:21:22.366Z,102404.50
2023-02-14T07:23:50.114Z,102407.38
2023-02-14T07:26:18.312Z,102402.78
2023-02-14T07:28:45.214Z,102398.34
2023-02-14T07:31:12.081Z,102403.50
2023-02-14T07:33:38.429Z,102406.72
2023-02-14T07:36:04.819Z,102400.78
2023-02-14T07:38:31.210Z,102406.94
2023-02-14T07:40:57.611Z,102403.41
2023-02-14T07:43:24.087Z,102404.22
2023-02-14T07:45:50.405Z,102398.84
2023-02-14T07:48:16.722Z,102387.94
2023-02-14T07:50:43.054Z,102393.28
2023-02-14T07:53:09.429Z,102391.16
2023-02-14T07:55:35.736Z,102391.63
2023-02-14T07:58:02.073Z,102395.66
2023-02-14T08:00:28.438Z,102394.94
2023-02-14T08:02:56.132Z,102401.06
2023-02-14T08:05:22.506Z,102399.84
2023-02-14T08:07:48.928Z,102392.25
2023-02-14T08:10:15.336Z,102391.97
2023-02-14T08:13:00.187Z,102396.28
2023-02-14T08:15:45.747Z,102389.44
2023-02-14T08:18:12.204Z,102398.66
2023-02-14T08:20:38.556Z,102398.19
2023-02-14T08:23:04.934Z,102405.94
2023-02-14T08:25:31.292Z,102389.09
2023-02-14T08:27:57.638Z,102404.44
2023-02-14T08:30:24.046Z,102399.56
2023-02-14T08:32:50.509Z,102403.78
2023-02-14T08:35:16.867Z,102403.09
2023-02-14T08:37:43.169Z,102408.16
2023-02-14T08:40:09.495Z,102410.44
2023-02-14T08:42:35.841Z,102405.66
2023-02-14T08:45:02.201Z,102411.53
2023-02-14T08:47:28.534Z,102407.16
2023-02-14T08:49:54.860Z,102414.50
2023-02-14T08:52:21.182Z,102416.13
2023-02-14T08:54:47.555Z,102406.31
2023-02-14T08:57:15.625Z,102396.41
2023-02-14T08:59:41.964Z,102411.47
2023-02-14T09:02:08.269Z,102401.53
2023-02-14T09:04:34.660Z,102413.44
2023-02-14T09:07:01.078Z,102414.75
2023-02-14T09:09:27.467Z,102413.16
2023-02-14T09:11:53.956Z,102408.94
2023-02-14T09:14:21.063Z,102417.03
2023-02-14T09:16:47.535Z,102413.72
2023-02-14T09:19:13.918Z,102421.19
2023-02-14T09:21:40.285Z,102415.38
2023-02-14T09:24:06.615Z,102412.91
2023-02-14T09:26:32.917Z,102430.09
2023-02-14T09:28:59.257Z,102423.84
2023-02-14T09:31:25.695Z,102418.34
2023-02-14T09:33:52.255Z,102417.78
2023-02-14T09:36:37.421Z,102424.41
2023-02-14T09:39:03.768Z,102412.22
2023-02-14T09:41:30.077Z,102414.41
2023-02-14T09:43:56.394Z,102426.44
2023-02-14T09:46:22.744Z,102428.22
2023-02-14T09:48:49.116Z,102430.22
2023-02-14T09:51:15.467Z,102422.28
2023-02-14T09:53:41.823Z,102423.22
2023-02-14T09:56:08.259Z,102429.72
2023-02-14T09:58:35.310Z,102425.06
2023-02-14T10:01:01.942Z,102434.75
2023-02-14T10:03:28.567Z,102428.34
2023-02-14T10:05:55.481Z,102419.25
2023-02-14T10:08:21.835Z,102419.94
2023-02-14T10:10:48.159Z,102425.38
2023-02-14T10:13:14.981Z,102431.81
2023-02-14T10:15:41.312Z,102424.31
2023-02-14T10:18:07.640Z,102425.31
2023-02-14T10:20:33.948Z,102427.56
2023-02-14T10:23:00.314Z,102425.66
2023-02-14T10:25:26.657Z,102416.16
2023-02-14T10:27:52.996Z,102417.81
2023-02-14T10:30:19.379Z,102419.44
2023-02-14T10:32:45.752Z,102413.25
2023-02-14T10:35:12.073Z,102412.25
2023-02-14T10:37:38.481Z,102416.13
2023-02-14T10:40:05.994Z,102419.06
2023-02-14T10:42:32.321Z,102416.25
2023-02-14T10:44:58.883Z,102416.25
2023-02-14T10:47:25.341Z,102418.81
2023-02-14T10:49:51.654Z,102403.44
2023-02-14T10:52:18.064Z,102414.00
2023-02-14T10:54:44.360Z,102407.66
2023-02-14T10:57:10.679Z,102407.81
2023-02-14T10:59:36.991Z,102404.88
2023-02-14T11:02:03.351Z,102405.34
2023-02-14T11:04:29.674Z,102410.56
2023-02-14T11:06:56.030Z,102418.56
2023-02-14T11:09:22.514Z,102409.75
2023-02-14T11:11:48.890Z,102409.50
2023-02-14T11:14:16.738Z,102409.59
2023-02-14T11:16:43.670Z,102401.41
2023-02-14T11:19:10.121Z,102402.19
2023-02-14T11:21:36.494Z,102402.06
2023-02-14T11:24:02.796Z,102398.94
2023-02-14T11:26:29.111Z,102403.91
2023-02-14T11:28:55.497Z,102388.69
2023-02-14T11:31:21.878Z,102387.69
2023-02-14T11:33:50.927Z,102391.75
2023-02-14T11:36:18.148Z,102387.28
2023-02-14T11:38:44.455Z,102394.75
2023-02-14T11:41:10.782Z,102389.63
2023-02-14T11:43:37.290Z,102382.44
2023-02-14T11:46:03.741Z,102383.31
2023-02-14T11:48:38.177Z,102382.19
2023-02-14T11:51:05.384Z,102392.03
2023-02-14T11:53:31.697Z,102383.72
2023-02-14T11:55:58.062Z,102382.25
2023-02-14T11:58:24.375Z,102383.56
2023-02-14T12:00:50.707Z,102375.84
2023-02-14T12:03:17.053Z,102379.09
2023-02-14T12:05:43.448Z,102362.47
2023-02-14T12:08:09.765Z,102368.31
2023-02-14T12:10:36.112Z,102365.53
2023-02-14T12:13:02.544Z,102364.72
2023-02-14T12:15:29.335Z,102364.38
2023-02-14T12:17:55.686Z,102350.97
2023-02-14T12:20:22.007Z,102352.50
2023-02-14T12:22:48.321Z,102344.06
2023-02-14T12:25:14.710Z,102342.50
2023-02-14T12:27:41.065Z,102341.25
2023-02-14T12:30:07.889Z,102342.47
2023-02-14T12:32:34.214Z,102340.09
2023-02-14T12:35:00.541Z,102338.19
2023-02-14T12:37:27.497Z,102332.31
2023-02-14T12:39:54.461Z,102335.25
2023-02-14T12:42:20.861Z,102325.34
2023-02-14T12:44:47.201Z,102319.47
2023-02-14T12:47:13.511Z,102310.63
2023-02-14T12:49:39.825Z,102318.50
2023-02-14T12:52:06.229Z,102309.62
2023-02-14T12:54:32.590Z,102310.00
2023-02-14T12:56:58.950Z,102308.37
2023-02-14T12:59:25.338Z,102310.16
2023-02-14T13:01:51.764Z,102301.34
2023-02-14T13:04:18.138Z,102292.44
2023-02-14T13:06:44.491Z,102285.34
2023-02-14T13:09:10.808Z,102298.59
2023-02-14T13:11:37.133Z,102286.59
2023-02-14T13:14:04.727Z,102287.00
2023-02-14T13:16:31.562Z,102281.59
2023-02-14T13:18:58.023Z,102279.56
2023-02-14T13:21:24.341Z,102271.91
2023-02-14T13:23:52.947Z,102277.41
2023-02-14T13:26:19.316Z,102269.94
2023-02-14T13:28:45.673Z,102278.88
2023-02-14T13:31:12.320Z,102268.78
2023-02-14T13:33:38.720Z,102267.22
2023-02-14T13:36:05.141Z,102264.69
2023-02-14T13:38:31.956Z,102268.13
2023-02-14T13:40:58.560Z,102257.34
2023-02-14T13:43:24.957Z,102256.69
2023-02-14T13:45:51.841Z,102260.31
2023-02-14T13:48:18.540Z,102256.84
2023-02-14T13:50:44.878Z,102254.81
2023-02-14T13:53:11.219Z,102248.09
2023-02-14T13:55:37.608Z,102243.84
2023-02-14T13:58:03.983Z,102255.62
2023-02-14T14:00:30.298Z,102255.97
2023-02-14T14:02:56.642Z,102255.31
2023-02-14T14:05:22.974Z,102254.22
2023-02-14T14:07:49.282Z,102255.31
2023-02-14T14:10:15.622Z,102249.53
2023-02-14T14:12:42.022Z,102255.41
2023-02-14T14:15:08.357Z,102244.72
2023-02-14T14:17:34.680Z,102248.72
2023-02-14T14:20:01.211Z,102244.13
2023-02-14T14:22:27.601Z,102237.97
2023-02-14T14:24:54.236Z,102237.66
2023-02-14T14:27:21.229Z,102232.22
2023-02-14T14:29:47.592Z,102227.19
2023-02-14T14:32:18.230Z,102221.53
2023-02-14T14:34:44.564Z,102226.28
2023-02-14T14:37:10.907Z,102225.31
2023-02-14T14:39:39.948Z,102217.44
2023-02-14T14:42:07.039Z,102218.41
2023-02-14T14:44:33.424Z,102220.00
2023-02-14T14:46:59.817Z,102212.41
2023-02-14T14:49:26.127Z,102209.31
2023-02-14T14:51:52.451Z,102207.47
2023-02-14T14:54:18.786Z,102197.16
2023-02-14T14:56:45.109Z,102197.22
2023-02-14T14:59:11.454Z,102200.25
2023-02-14T15:01:37.790Z,102197.25
2023-02-14T15:04:04.634Z,102189.50
2023-02-14T15:06:30.959Z,102195.25
2023-02-14T15:08:57.276Z,102185.56
2023-02-14T15:11:42.470Z,102186.63
2023-02-14T15:14:09.405Z,102175.59
2023-02-14T15:16:35.927Z,102171.38
2023-02-14T15:19:02.310Z,102178.91
2023-02-14T15:21:28.642Z,102180.19
2023-02-14T15:23:55.026Z,102170.34
2023-02-14T15:26:21.529Z,102173.97
2023-02-14T15:28:47.876Z,102156.59
2023-02-14T15:31:14.237Z,102160.66
2023-02-14T15:33:40.626Z,102158.16
2023-02-14T15:36:06.962Z,102158.69
2023-02-14T15:38:33.949Z,102153.31
2023-02-14T15:41:00.687Z,102145.63
2023-02-14T15:43:29.694Z,102152.56
2023-02-14T15:45:58.138Z,102152.00
2023-02-14T15:48:24.473Z,102146.81
2023-02-14T15:50:50.783Z,102149.81
2023-02-14T15:53:17.409Z,102153.22
2023-02-14T15:55:44.595Z,102148.16
2023-02-14T15:58:10.962Z,102150.44
2023-02-14T16:00:37.301Z,102151.00
2023-02-14T16:03:03.767Z,102149.84
2023-02-14T16:05:30.122Z,102140.16
2023-02-14T16:07:56.464Z,102144.84
2023-02-14T16:10:22.836Z,102148.66
2023-02-14T16:12:49.142Z,102157.47
2023-02-14T16:15:15.553Z,102156.09
2023-02-14T16:17:44.110Z,102154.63
2023-02-14T16:20:10.441Z,102148.13
2023-02-14T16:22:38.383Z,102147.31
2023-02-14T16:25:04.689Z,102142.78
2023-02-14T16:27:31.025Z,102153.53
2023-02-14T16:29:57.382Z,102144.12
2023-02-14T16:32:23.866Z,102146.03
2023-02-14T16:34:50.269Z,102147.03
2023-02-14T16:37:16.627Z,102148.16
2023-02-14T16:39:42.930Z,102155.47
2023-02-14T16:42:09.269Z,102149.06
2023-02-14T16:44:35.601Z,102156.31
2023-02-14T16:47:01.957Z,102154.88
2023-02-14T16:49:28.255Z,102150.12
2023-02-14T16:51:55.453Z,102149.19
2023-02-14T16:54:21.816Z,102148.87
2023-02-14T16:56:48.135Z,102150.41
2023-02-14T16:59:14.529Z,102144.25
2023-02-14T17:01:41.163Z,102148.50
2023-02-14T17:04:07.523Z,102146.44
2023-02-14T17:06:33.903Z,102154.34
2023-02-14T17:09:00.240Z,102142.19
2023-02-14T17:11:26.626Z,102141.16
2023-02-14T17:13:52.938Z,102144.75
2023-02-14T17:16:19.308Z,102137.59
2023-02-14T17:18:47.593Z,102141.28
2023-02-14T17:21:13.977Z,102133.81
2023-02-14T17:23:40.283Z,102130.53
2023-02-14T17:26:07.159Z,102139.66
2023-02-14T17:28:33.488Z,102132.78
2023-02-14T17:31:00.916Z,102139.09
2023-02-14T17:33:27.656Z,102131.87
2023-02-14T17:35:53.963Z,102131.81
2023-02-14T17:38:21.551Z,102126.81
2023-02-14T17:40:47.862Z,102127.12
2023-02-14T17:43:14.183Z,102122.38
2023-02-14T17:45:40.491Z,102124.03
2023-02-14T17:48:06.832Z,102130.81
2023-02-14T17:50:33.131Z,102126.91
2023-02-14T17:52:59.458Z,102119.94
2023-02-14T17:55:25.901Z,102118.84
2023-02-14T17:57:52.697Z,102118.28
2023-02-14T18:00:19.850Z,102117.19
2023-02-14T18:02:46.181Z,102112.91
2023-02-14T18:05:12.529Z,102115.44
2023-02-14T18:07:38.892Z,102114.09
2023-02-14T18:10:05.226Z,102105.78
2023-02-14T18:12:31.582Z,102115.59
2023-02-14T18:14:57.918Z,102105.09
2023-02-14T18:17:24.314Z,102114.78
2023-02-14T18:19:50.640Z,102109.09
2023-02-14T18:22:16.961Z,102106.25
2023-02-14T18:24:43.310Z,102103.16
2023-02-14T18:27:09.669Z,102106.00
2023-02-14T18:29:36.055Z,102102.66
2023-02-14T18:32:02.419Z,102100.72
2023-02-14T18:34:29.181Z,102102.72
2023-02-14T18:36:55.678Z,102107.19
2023-02-14T18:39:21.997Z,102100.72
2023-02-14T18:41:48.310Z,102095.19
2023-02-14T18:44:14.789Z,102094.63
2023-02-14T18:46:41.108Z,102108.91
2023-02-14T18:49:08.513Z,102093.19
2023-02-14T18:51:34.846Z,102094.19
2023-02-14T18:54:01.234Z,102094.72
2023-02-14T18:56:28.835Z,102087.50
2023-02-14T18:58:55.208Z,102087.19
2023-02-14T19:01:21.625Z,102083.47
2023-02-14T19:03:49.682Z,102079.66
2023-02-14T19:06:16.014Z,102080.72
2023-02-14T19:08:42.404Z,102073.63
2023-02-14T19:11:08.747Z,102072.12
2023-02-14T19:13:35.053Z,102078.13
2023-02-14T19:16:01.461Z,102070.03
2023-02-14T19:18:27.857Z,102068.59
2023-02-14T19:20:54.174Z,102060.31
2023-02-14T19:23:20.498Z,102066.00
2023-02-14T19:25:46.810Z,102064.56
2023-02-14T19:28:13.598Z,102064.91
2023-02-14T19:30:39.988Z,102067.59
2023-02-14T19:33:06.976Z,102057.88
2023-02-14T19:35:33.316Z,102065.47
2023-02-14T19:38:03.500Z,102055.53
2023-02-14T19:40:30.167Z,102061.88
2023-02-14T19:42:56.490Z,102065.62
2023-02-14T19:45:22.816Z,102059.88
2023-02-14T19:47:49.574Z,102059.53
2023-02-14T19:50:15.996Z,102057.41
2023-02-14T19:52:43.966Z,102060.31
2023-02-14T19:55:10.296Z,102064.16
2023-02-14T19:57:36.646Z,102065.25
2023-02-14T20:00:04.115Z,102064.75
2023-02-14T20:02:30.460Z,102054.47
2023-02-14T20:04:59.372Z,102055.88
2023-02-14T20:07:25.900Z,102053.13
2023-02-14T20:09:52.240Z,102052.81
2023-02-14T20:12:18.595Z,102055.94
2023-02-14T20:14:51.348Z,102053.09
2023-02-14T20:17:18.224Z,102048.25
2023-02-14T20:19:44.575Z,102042.91
2023-02-14T20:22:10.895Z,102051.66
2023-02-14T20:24:37.202Z,102053.31
2023-02-14T20:27:03.532Z,102039.41
2023-02-14T20:29:30.035Z,102034.38
2023-02-14T20:31:58.152Z,102027.84
2023-02-14T20:34:24.525Z,102035.25
2023-02-14T20:36:55.346Z,102029.75
2023-02-14T20:39:21.738Z,102029.87
2023-02-14T20:41:50.326Z,102041.50
2023-02-14T20:44:19.784Z,102041.97
2023-02-14T20:46:46.087Z,102025.31
2023-02-14T20:49:12.538Z,102030.50
2023-02-14T20:51:38.852Z,102033.97
2023-02-14T20:54:05.212Z,102038.66
2023-02-14T20:56:31.519Z,102025.34
2023-02-14T20:58:57.839Z,102029.34
2023-02-14T21:01:24.221Z,102020.53
2023-02-14T21:03:50.926Z,102024.56
2023-02-14T21:06:17.292Z,102028.62
2023-02-14T21:08:43.683Z,102024.56
2023-02-14T21:11:10.024Z,102022.50
2023-02-14T21:13:36.332Z,102012.31
2023-02-14T21:16:02.898Z,102021.31
2023-02-14T21:18:29.227Z,102020.09
2023-02-14T21:20:56.050Z,102028.00
2023-02-14T21:23:22.497Z,102024.66
2023-02-14T21:25:48.808Z,102020.84
2023-02-14T21:28:15.131Z,102023.47
2023-02-14T21:30:41.507Z,102019.78
2023-02-14T21:33:07.931Z,102022.78
2023-02-14T21:35:34.248Z,102014.28
2023-02-14T21:38:00.571Z,102015.94
2023-02-14T21:40:26.946Z,102013.72
2023-02-14T21:42:53.263Z,102007.94
2023-02-14T21:45:38.382Z,101999.78
2023-02-14T21:48:23.368Z,102002.81
2023-02-14T21:50:49.693Z,101998.81
2023-02-14T21:53:16.067Z,102002.41
2023-02-14T21:55:42.959Z,101987.31
2023-02-14T21:58:09.280Z,101982.53
2023-02-14T22:00:35.710Z,101983.28
2023-02-14T22:03:02.033Z,101984.09
2023-02-14T22:05:28.391Z,101982.78
2023-02-14T22:07:54.706Z,101984.19
2023-02-14T22:10:21.036Z,101976.44
2023-02-14T22:12:47.370Z,101975.59
2023-02-14T22:15:13.677Z,101971.41
2023-02-14T22:17:39.998Z,101972.00
2023-02-14T22:20:06.365Z,101972.72
2023-02-14T22:22:32.686Z,101975.47
2023-02-14T22:24:59.005Z,101970.72
2023-02-14T22:27:25.366Z,101964.72
2023-02-14T22:29:51.728Z,101957.06
2023-02-14T22:32:18.150Z,101964.00
2023-02-14T22:34:44.613Z,101961.50
2023-02-14T22:37:10.966Z,101962.91
2023-02-14T22:39:37.303Z,101960.19
2023-02-14T22:42:06.885Z,101968.31
2023-02-14T22:44:33.248Z,101968.66
2023-02-14T22:46:59.592Z,101965.81
2023-02-14T22:49:25.918Z,101962.06
2023-02-14T22:51:52.239Z,101961.12
2023-02-14T22:54:18.638Z,101961.97
2023-02-14T22:56:44.998Z,101957.41
2023-02-14T22:59:11.348Z,101955.97
2023-02-14T23:01:37.805Z,101951.56
2023-02-14T23:04:04.204Z,101947.47
2023-02-14T23:06:30.589Z,101956.09
2023-02-14T23:08:57.180Z,101959.41
2023-02-14T23:11:23.527Z,101953.06
2023-02-14T23:14:08.754Z,101959.41
2023-02-14T23:16:53.642Z,101941.84
2023-02-14T23:19:38.777Z,101945.81
2023-02-14T23:22:05.120Z,101944.47
2023-02-14T23:24:31.446Z,101945.44
2023-02-14T23:26:57.825Z,101948.19
2023-02-14T23:29:24.199Z,101939.47
2023-02-14T23:31:50.673Z,101939.94
2023-02-14T23:34:17.145Z,101941.59
2023-02-14T23:36:43.462Z,101934.19
2023-02-14T23:39:09.788Z,101943.16
2023-02-14T23:41:48.588Z,101941.84
2023-02-14T23:44:14.906Z,101933.59
2023-02-14T23:46:41.211Z,101938.59
2023-02-14T23:49:07.599Z,101928.00
2023-02-14T23:51:33.990Z,101925.88
2023-02-14T23:54:00.320Z,101922.38
2023-02-14T23:56:26.685Z,101910.91
2023-02-14T23:58:53.021Z,101920.34
